Time;durP1;ratioP1;P1;durP2;ratioP2;P2;SDS_P1;SDS_P2;PMS_P1;PMS_P2;Temp;Humidity;BMP_temperature;BMP_pressure;BME280_temperature;BME280_humidity;BME280_pressure;Samples;Min_cycle;Max_cycle;Signal;HPM_P1;HPM_P2
2023/03/06 00:00:55;;;;;;;5.38;3.65;;;;;;;5.21;44.08;100479.47;5033763;28;20037;-75
2023/03/06 00:03:26;;;;;;;5.68;3.55;;;;;;;5.18;43.91;100477.84;5054637;28;20116;-75
2023/03/06 00:05:56;;;;;;;6.30;3.60;;;;;;;5.17;44.01;100480.63;5030662;28;20512;-74
2023/03/06 00:08:24;;;;;;;6.03;3.53;;;;;;;5.16;44.02;100474.31;5048386;28;20045;-75
2023/03/06 00:10:52;;;;;;;5.75;3.83;;;;;;;5.15;44.09;100474.41;5030630;28;20045;-75
2023/03/06 00:13:20;;;;;;;7.63;4.15;;;;;;;5.14;44.15;100469.97;5049118;28;20041;-75
2023/03/06 00:15:48;;;;;;;6.15;3.80;;;;;;;5.14;44.23;100470.84;5048450;28;20094;-75
2023/03/06 00:18:16;;;;;;;6.68;4.47;;;;;;;5.12;44.29;100470.09;5030920;28;20528;-75
2023/03/06 00:20:45;;;;;;;6.93;4.85;;;;;;;5.13;44.55;100463.66;5048038;28;20060;-74
2023/03/06 00:23:13;;;;;;;7.22;4.63;;;;;;;5.11;44.25;100462.94;5051839;28;20045;-75
2023/03/06 00:25:43;;;;;;;7.50;4.30;;;;;;;5.14;44.43;100464.53;5059041;28;20041;-74
2023/03/06 00:28:11;;;;;;;7.80;4.80;;;;;;;5.11;44.37;100454.81;5052757;28;20056;-75
2023/03/06 00:30:39;;;;;;;9.18;5.25;;;;;;;5.11;44.34;100449.38;5043640;28;20044;-75
2023/03/06 00:33:07;;;;;;;8.00;5.15;;;;;;;5.12;44.36;100456.53;5042562;28;20041;-75
2023/03/06 00:35:35;;;;;;;7.55;5.35;;;;;;;5.11;44.15;100446.66;5058602;28;20049;-75
2023/03/06 00:38:05;;;;;;;8.50;5.32;;;;;;;5.12;44.46;100451.13;5051802;28;20037;-75
2023/03/06 00:40:33;;;;;;;7.97;5.25;;;;;;;5.12;44.37;100444.81;5033165;28;20173;-75
2023/03/06 00:43:01;;;;;;;8.07;5.03;;;;;;;5.11;44.36;100440.38;5057156;28;20037;-76
2023/03/06 00:45:29;;;;;;;8.35;5.13;;;;;;;5.11;44.26;100438.53;5033243;28;20049;-75
2023/03/06 00:47:57;;;;;;;9.23;5.78;;;;;;;5.11;44.48;100433.09;5039648;28;20401;-75
2023/03/06 00:50:25;;;;;;;8.77;5.50;;;;;;;5.10;44.19;100431.38;5033008;28;20053;-75
2023/03/06 00:52:52;;;;;;;9.88;5.97;;;;;;;5.09;43.97;100426.03;5052487;28;20356;-75
2023/03/06 00:55:22;;;;;;;9.05;6.10;;;;;;;5.10;44.42;100434.06;5049161;28;20128;-76
2023/03/06 00:57:49;;;;;;;9.55;5.68;;;;;;;5.08;44.11;100422.47;5049885;28;20037;-75
2023/03/06 01:00:18;;;;;;;10.07;6.00;;;;;;;5.08;44.17;100422.47;5037912;28;20097;-75
2023/03/06 01:02:48;;;;;;;10.23;6.15;;;;;;;5.06;44.08;100418.97;5045769;28;20041;-75
2023/03/06 01:05:17;;;;;;;10.52;5.80;;;;;;;5.05;44.19;100414.53;5034293;28;20115;-75
2023/03/06 01:07:44;;;;;;;10.55;6.57;;;;;;;5.04;44.31;100404.69;5034188;28;20057;-75
2023/03/06 01:10:12;;;;;;;11.95;6.90;;;;;;;5.04;44.22;100401.97;5050860;28;20132;-75
2023/03/06 01:12:42;;;;;;;10.68;6.57;;;;;;;5.05;44.35;100403.69;5057974;28;20112;-76
2023/03/06 01:15:12;;;;;;;11.25;6.82;;;;;;;5.05;44.29;100410.94;5051141;28;20049;-75
2023/03/06 01:17:40;;;;;;;13.13;6.90;;;;;;;5.02;44.40;100398.50;5044038;28;20052;-75
2023/03/06 01:20:13;;;;;;;9.25;5.80;;;;;;;5.04;44.63;100396.56;5024945;28;20041;-75
2023/03/06 01:22:41;;;;;;;12.13;7.00;;;;;;;5.01;44.50;100398.59;5043690;28;20095;-75
2023/03/06 01:25:10;;;;;;;11.45;7.10;;;;;;;5.02;44.32;100390.38;5050655;28;20135;-75
2023/03/06 01:27:38;;;;;;;10.88;6.60;;;;;;;5.01;44.44;100385.91;5043280;28;20416;-75
2023/03/06 01:30:09;;;;;;;11.02;6.88;;;;;;;5.03;44.72;100385.81;5033031;28;20562;-75
2023/03/06 01:32:38;;;;;;;9.63;5.93;;;;;;;4.99;44.41;100385.16;5026855;28;20041;-76
2023/03/06 01:35:07;;;;;;;10.43;6.70;;;;;;;5.01;44.66;100382.31;5033563;28;20468;-75
2023/03/06 01:37:35;;;;;;;11.77;6.60;;;;;;;5.00;44.66;100376.03;5034030;28;20140;-75
2023/03/06 01:40:05;;;;;;;10.10;6.70;;;;;;;5.01;44.53;100379.63;5050224;28;20037;-75
2023/03/06 01:42:33;;;;;;;11.60;7.00;;;;;;;5.00;44.37;100377.88;5056306;28;20121;-75
2023/03/06 01:45:03;;;;;;;11.02;6.80;;;;;;;5.00;44.59;100372.44;5030779;28;20045;-75
2023/03/06 01:47:32;;;;;;;10.48;6.50;;;;;;;5.00;44.55;100380.59;5040374;28;20131;-75
2023/03/06 01:50:02;;;;;;;11.52;6.88;;;;;;;4.99;44.68;100370.72;5031737;28;20072;-75
2023/03/06 01:52:35;;;;;;;10.98;6.75;;;;;;;5.00;44.69;100372.44;5040357;28;20033;-75
2023/03/06 01:55:08;;;;;;;12.35;7.00;;;;;;;4.99;44.79;100363.44;5028046;28;20072;-75
2023/03/06 01:57:40;;;;;;;12.80;7.93;;;;;;;4.98;44.63;100350.88;5064202;28;20096;-75
2023/03/06 02:00:11;;;;;;;12.55;7.75;;;;;;;4.99;44.42;100362.59;5026947;28;20081;-75
2023/03/06 02:02:47;;;;;;;12.35;7.30;;;;;;;4.97;44.80;100348.25;5016889;28;20041;-75
2023/03/06 02:05:15;;;;;;;12.25;7.90;;;;;;;4.94;44.91;100349.38;5043051;28;20517;-75
2023/03/06 02:07:44;;;;;;;11.60;7.60;;;;;;;4.96;44.40;100349.25;5036415;28;20049;-75
2023/03/06 02:10:14;;;;;;;12.55;7.95;;;;;;;4.96;44.32;100346.56;5034556;28;20361;-75
2023/03/06 02:12:43;;;;;;;12.32;7.53;;;;;;;4.96;44.54;100343.84;5040659;28;20401;-75
2023/03/06 02:15:12;;;;;;;11.38;7.30;;;;;;;4.95;44.28;100339.38;5048805;28;20037;-75
2023/03/06 02:17:42;;;;;;;11.98;7.30;;;;;;;4.93;44.63;100343.06;5050218;28;20049;-75
2023/03/06 02:20:16;;;;;;;13.90;8.02;;;;;;;4.92;44.66;100335.91;5036118;28;20037;-75
2023/03/06 02:22:54;;;;;;;12.43;8.00;;;;;;;4.91;44.66;100339.59;5025159;28;20044;-75
2023/03/06 02:25:39;;;;;;;12.15;8.10;;;;;;;4.90;45.09;100328.84;5043471;28;20520;-75
2023/03/06 02:28:10;;;;;;;11.30;7.18;;;;;;;4.86;44.48;100325.53;5032768;28;20048;-75
2023/03/06 02:30:40;;;;;;;13.30;7.97;;;;;;;4.84;44.57;100323.88;5040177;28;20071;-75
2023/03/06 02:33:12;;;;;;;13.23;8.13;;;;;;;4.85;44.80;100326.50;5032083;28;20616;-75
2023/03/06 02:35:46;;;;;;;13.55;7.97;;;;;;;4.84;44.73;100322.03;5044509;28;20059;-75
2023/03/06 02:38:17;;;;;;;12.13;7.82;;;;;;;4.83;44.74;100324.88;5034450;28;20460;-75
2023/03/06 02:40:49;;;;;;;11.88;7.40;;;;;;;4.82;45.03;100324.00;5031174;28;20052;-75
2023/03/06 02:43:22;;;;;;;11.23;7.32;;;;;;;4.80;44.82;100317.81;5052729;28;20608;-75
2023/03/06 02:45:51;;;;;;;11.15;7.60;;;;;;;4.81;44.75;100319.53;5042398;28;20053;-75
2023/03/06 02:48:20;;;;;;;12.73;8.23;;;;;;;4.81;44.56;100316.84;5034002;28;20049;-76
2023/03/06 02:50:48;;;;;;;12.35;7.82;;;;;;;4.80;44.95;100320.53;5054150;28;20507;-75
2023/03/06 02:53:18;;;;;;;13.68;7.70;;;;;;;4.82;45.01;100312.28;5028479;28;20488;-75
2023/03/06 02:55:47;;;;;;;13.70;8.57;;;;;;;4.81;44.87;100307.84;5044705;28;20072;-75
2023/03/06 02:58:18;;;;;;;12.90;8.68;;;;;;;4.80;44.94;100314.25;5045227;28;20508;-75
2023/03/06 03:00:46;;;;;;;14.30;8.93;;;;;;;4.80;44.89;100306.97;5025160;28;20456;-75
2023/03/06 03:03:14;;;;;;;14.45;9.00;;;;;;;4.81;45.05;100307.84;5025285;28;20041;-75
2023/03/06 03:05:42;;;;;;;11.70;8.07;;;;;;;4.80;44.95;100309.69;5041110;28;20045;-75
2023/03/06 03:08:16;;;;;;;12.48;7.82;;;;;;;4.80;45.09;100309.69;5042159;28;20526;-75
2023/03/06 03:10:46;;;;;;;14.15;8.25;;;;;;;4.81;45.07;100311.41;5027799;28;20044;-75
2023/03/06 03:13:14;;;;;;;13.10;8.18;;;;;;;4.81;44.98;100310.53;5039935;28;20041;-75
2023/03/06 03:15:43;;;;;;;14.27;9.15;;;;;;;4.81;45.02;100308.69;5030298;28;20548;-75
2023/03/06 03:18:11;;;;;;;12.38;8.18;;;;;;;4.81;44.92;100300.56;5030292;28;20052;-75
2023/03/06 03:20:42;;;;;;;14.13;8.95;;;;;;;4.81;45.04;100295.16;5030128;28;20393;-75
2023/03/06 03:23:10;;;;;;;14.85;9.20;;;;;;;4.80;44.94;100306.97;5030928;28;20074;-75
2023/03/06 03:25:38;;;;;;;14.40;8.73;;;;;;;4.80;44.90;100301.53;5024274;28;20045;-75
2023/03/06 03:28:08;;;;;;;14.68;8.25;;;;;;;4.80;44.94;100303.41;5044320;28;20049;-74
2023/03/06 03:30:36;;;;;;;14.52;9.05;;;;;;;4.77;45.00;100301.78;5036055;28;20040;-74
2023/03/06 03:33:03;;;;;;;13.40;8.35;;;;;;;4.77;44.82;100292.78;5023530;28;20049;-75
2023/03/06 03:35:32;;;;;;;13.68;8.27;;;;;;;4.77;44.80;100296.38;5038751;28;20052;-75
2023/03/06 03:38:00;;;;;;;11.23;7.35;;;;;;;4.76;44.74;100291.03;5046620;28;20083;-75
2023/03/06 03:40:28;;;;;;;12.68;8.02;;;;;;;4.75;44.87;100283.88;5047871;28;20048;-75
2023/03/06 03:42:58;;;;;;;13.65;8.40;;;;;;;4.72;44.88;100279.53;5031544;28;20060;-75
2023/03/06 03:45:27;;;;;;;11.75;7.65;;;;;;;4.74;44.79;100283.03;5030641;28;20394;-75
2023/03/06 03:47:55;;;;;;;13.13;7.88;;;;;;;4.71;44.79;100271.53;5026218;28;20045;-75
2023/03/06 03:50:23;;;;;;;14.02;8.05;;;;;;;4.71;45.01;100287.81;5028033;28;20041;-76
2023/03/06 03:52:51;;;;;;;12.27;7.93;;;;;;;4.69;44.87;100263.53;5048456;28;20133;-75
2023/03/06 03:55:19;;;;;;;12.13;7.80;;;;;;;4.69;44.84;100268.94;5046504;28;20583;-77
2023/03/06 03:57:47;;;;;;;12.85;7.63;;;;;;;4.69;44.86;100268.94;5028301;28;20048;-76
2023/03/06 04:00:16;;;;;;;11.27;7.55;;;;;;;4.69;45.06;100262.66;5036558;28;20501;-76
2023/03/06 04:02:55;;;;;;;12.55;7.53;;;;;;;4.69;44.93;100257.22;5035989;28;20068;-77
2023/03/06 04:05:29;;;;;;;13.25;8.18;;;;;;;4.66;44.80;100260.16;5034484;28;20041;-76
2023/03/06 04:07:57;;;;;;;13.35;8.00;;;;;;;4.67;44.90;100254.63;5028859;28;20108;-76
2023/03/06 04:10:25;;;;;;;12.63;8.32;;;;;;;4.67;44.96;100251.91;5037598;28;20118;-76
2023/03/06 04:12:54;;;;;;;14.80;8.35;;;;;;;4.68;44.94;100250.94;5043632;28;20073;-76
2023/03/06 04:15:21;;;;;;;12.95;8.63;;;;;;;4.67;44.94;100246.50;5030504;28;20076;-76
2023/03/06 04:17:49;;;;;;;14.65;9.18;;;;;;;4.67;44.98;100257.34;5052840;28;20052;-76
2023/03/06 04:20:22;;;;;;;14.95;9.18;;;;;;;4.69;45.05;100251.81;5035770;28;20045;-76
2023/03/06 04:22:50;;;;;;;13.45;8.00;;;;;;;4.66;44.96;100242.06;5052602;28;20060;-76
2023/03/06 04:25:18;;;;;;;13.68;8.65;;;;;;;4.66;44.90;100239.34;5051251;28;20503;-76
2023/03/06 04:27:45;;;;;;;15.55;9.07;;;;;;;4.67;44.96;100234.78;5051419;28;20076;-76
2023/03/06 04:30:13;;;;;;;15.15;9.00;;;;;;;4.67;44.90;100237.50;5041683;28;20040;-76
2023/03/06 04:32:42;;;;;;;15.57;8.60;;;;;;;4.66;45.05;100231.22;5034210;28;20424;-76
2023/03/06 04:35:10;;;;;;;13.98;8.77;;;;;;;4.67;45.10;100223.94;5041461;28;20045;-76
2023/03/06 04:37:49;;;;;;;15.23;8.75;;;;;;;4.68;45.05;100226.53;5040720;28;20052;-76
2023/03/06 04:40:21;;;;;;;16.15;9.30;;;;;;;4.67;45.05;100229.38;5038858;28;20053;-76
2023/03/06 04:42:49;;;;;;;15.05;9.48;;;;;;;4.66;45.03;100223.06;5052158;28;20052;-76
2023/03/06 04:45:17;;;;;;;18.48;11.15;;;;;;;4.66;44.90;100222.22;5033541;28;20044;-76
2023/03/06 04:47:45;;;;;;;18.77;11.05;;;;;;;4.65;44.99;100218.63;5052227;28;20080;-76
2023/03/06 04:50:13;;;;;;;17.52;10.38;;;;;;;4.66;45.06;100216.78;5037893;28;20041;-76
2023/03/06 04:52:41;;;;;;;16.95;10.05;;;;;;;4.66;45.28;100208.66;5052896;28;20052;-76
2023/03/06 04:55:13;;;;;;;19.92;10.65;;;;;;;4.68;45.43;100217.56;5069682;28;20411;-75
2023/03/06 04:57:42;;;;;;;17.30;10.20;;;;;;;4.64;45.09;100219.59;5050598;28;20420;-75
2023/03/06 05:00:14;;;;;;;18.52;10.82;;;;;;;4.67;45.42;100211.25;5059054;28;20060;-75
2023/03/06 05:02:42;;;;;;;16.63;10.38;;;;;;;4.66;45.21;100206.81;5045015;28;20123;-76
2023/03/06 05:05:11;;;;;;;17.13;10.20;;;;;;;4.67;45.18;100211.25;5038256;28;20045;-75
2023/03/06 05:07:39;;;;;;;16.75;10.40;;;;;;;4.67;45.13;100208.56;5034016;28;20456;-76
2023/03/06 05:10:11;;;;;;;17.05;10.35;;;;;;;4.68;45.23;100207.56;5057783;28;20567;-76
2023/03/06 05:12:39;;;;;;;16.65;9.77;;;;;;;4.67;45.20;100208.56;5045451;28;20072;-75
2023/03/06 05:15:08;;;;;;;16.92;10.80;;;;;;;4.69;45.17;100209.31;5037206;28;20109;-75
2023/03/06 05:17:36;;;;;;;18.33;10.95;;;;;;;4.68;45.16;100210.28;5033814;28;20056;-76
2023/03/06 05:20:06;;;;;;;17.88;10.88;;;;;;;4.70;45.29;100210.19;5033180;28;20033;-76
2023/03/06 05:22:34;;;;;;;17.48;10.30;;;;;;;4.68;45.18;100210.28;5051253;28;20033;-77
2023/03/06 05:25:02;;;;;;;18.80;10.57;;;;;;;4.69;45.25;100212.03;5051865;28;20635;-75
2023/03/06 05:27:31;;;;;;;18.75;10.68;;;;;;;4.70;45.21;100211.03;5052105;28;20223;-75
2023/03/06 05:29:59;;;;;;;16.35;10.13;;;;;;;4.69;45.26;100214.72;5050828;28;20111;-76
2023/03/06 05:32:27;;;;;;;19.55;11.48;;;;;;;4.69;44.98;100214.72;5051396;28;20103;-75
2023/03/06 05:34:55;;;;;;;18.52;10.80;;;;;;;4.70;45.00;100215.59;5050572;28;20041;-75
2023/03/06 05:37:23;;;;;;;19.17;10.95;;;;;;;4.69;45.18;100213.88;5051040;28;20056;-75
2023/03/06 05:39:51;;;;;;;19.08;11.15;;;;;;;4.70;44.98;100212.88;5026954;28;20197;-75
2023/03/06 05:42:19;;;;;;;17.98;10.82;;;;;;;4.69;44.83;100209.31;5048740;28;20045;-75
2023/03/06 05:44:48;;;;;;;18.33;11.10;;;;;;;4.70;44.92;100204.75;5037130;28;20044;-75
2023/03/06 05:47:16;;;;;;;19.95;11.55;;;;;;;4.67;44.99;100211.25;5053660;28;20049;-75
2023/03/06 05:49:44;;;;;;;20.50;11.05;;;;;;;4.66;44.84;100204.09;5049595;28;20050;-75
2023/03/06 05:52:13;;;;;;;18.38;10.48;;;;;;;4.68;45.01;100206.72;5042867;28;20053;-75
2023/03/06 05:54:41;;;;;;;21.27;11.77;;;;;;;4.65;44.79;100206.91;5050222;28;20033;-76
2023/03/06 05:57:09;;;;;;;17.77;11.05;;;;;;;4.65;44.88;100207.78;5051245;28;20051;-75
2023/03/06 05:59:37;;;;;;;19.02;10.88;;;;;;;4.65;44.97;100206.91;5050414;28;20033;-77
2023/03/06 06:02:06;;;;;;;19.15;11.15;;;;;;;4.65;44.90;100199.66;5054285;28;20496;-75
2023/03/06 06:04:34;;;;;;;17.58;10.52;;;;;;;4.64;44.65;100191.63;5051192;28;20091;-75
2023/03/06 06:07:04;;;;;;;17.92;10.50;;;;;;;4.64;44.70;100203.34;5056034;28;20049;-75
2023/03/06 06:09:33;;;;;;;18.80;10.68;;;;;;;4.62;44.63;100204.47;5031484;28;20128;-76
2023/03/06 06:12:03;;;;;;;18.95;10.80;;;;;;;4.62;44.71;100191.78;5057572;28;20552;-75
2023/03/06 06:14:33;;;;;;;17.70;10.25;;;;;;;4.61;44.89;100197.31;5055612;28;20109;-75
2023/03/06 06:17:01;;;;;;;16.33;9.35;;;;;;;4.59;44.81;100200.13;5050731;28;20045;-75
2023/03/06 06:19:31;;;;;;;18.73;10.38;;;;;;;4.59;44.81;100196.53;5048580;28;20534;-75
2023/03/06 06:22:01;;;;;;;17.42;10.10;;;;;;;4.58;45.09;100195.66;5032451;28;20059;-75
2023/03/06 06:24:29;;;;;;;19.13;11.18;;;;;;;4.59;44.72;100199.25;5031647;28;20144;-75
2023/03/06 06:26:58;;;;;;;18.73;11.00;;;;;;;4.59;44.89;100199.25;5040497;28;20049;-75
2023/03/06 06:29:30;;;;;;;;;;;;;;;4.36;45.64;100198.22;5049525;28;20060;-75
2023/03/06 06:31:58;;;;;;;16.75;9.98;;;;;;;4.54;45.04;100200.47;5050272;28;19925;-76
2023/03/06 06:34:27;;;;;;;17.35;10.32;;;;;;;4.59;44.79;100196.53;5038362;28;20033;-76
2023/03/06 06:36:56;;;;;;;18.75;10.52;;;;;;;4.60;44.86;100196.44;5050303;28;20032;-75
2023/03/06 06:39:24;;;;;;;17.42;9.95;;;;;;;4.60;44.78;100199.13;5044631;28;20037;-75
2023/03/06 06:41:52;;;;;;;18.30;10.90;;;;;;;4.59;44.88;100199.25;5042093;28;20111;-76
2023/03/06 06:44:40;;;;;;;19.65;10.13;;;;;;;4.57;44.83;100196.66;5052655;28;20053;-75
2023/03/06 06:47:08;;;;;;;15.95;9.57;;;;;;;4.58;44.88;100198.38;5039776;28;20091;-75
2023/03/06 06:49:51;;;;;;;16.13;9.63;;;;;;;4.58;44.93;100192.09;5031277;28;20052;-76
2023/03/06 06:52:20;;;;;;;17.98;9.93;;;;;;;4.60;44.79;100203.69;5031657;28;20568;-75
2023/03/06 06:54:48;;;;;;;18.38;9.85;;;;;;;4.58;44.74;100198.38;5049304;28;20044;-76
2023/03/06 06:57:17;;;;;;;18.23;10.10;;;;;;;4.58;44.70;100197.50;5039973;28;20037;-75
2023/03/06 06:59:45;;;;;;;21.38;11.23;;;;;;;4.58;44.75;100202.94;5049144;28;20128;-76
2023/03/06 07:02:14;;;;;;;18.65;10.20;;;;;;;4.58;44.74;100201.09;5031521;28;20072;-75
2023/03/06 07:04:43;;;;;;;20.25;11.95;;;;;;;4.57;44.68;100202.06;5049041;28;20076;-75
2023/03/06 07:07:31;;;;;;;17.60;10.63;;;;;;;4.58;44.73;100201.09;5049619;28;20049;-75
2023/03/06 07:09:59;;;;;;;19.95;11.65;;;;;;;4.58;44.59;100205.63;5052635;28;20048;-77
2023/03/06 07:12:27;;;;;;;20.35;10.93;;;;;;;4.55;44.59;100202.16;5031632;28;20037;-75
2023/03/06 07:14:55;;;;;;;18.40;10.52;;;;;;;4.58;44.57;100211.06;5049185;28;20125;-75
2023/03/06 07:17:22;;;;;;;19.77;11.38;;;;;;;4.58;44.83;100205.63;5049385;28;20045;-75
2023/03/06 07:19:50;;;;;;;18.10;10.70;;;;;;;4.57;44.54;100207.47;5048417;28;20141;-76
2023/03/06 07:22:18;;;;;;;18.70;10.38;;;;;;;4.57;44.57;100210.19;5031572;28;20045;-76
2023/03/06 07:24:47;;;;;;;16.65;10.32;;;;;;;4.59;44.55;100213.66;5049240;28;20045;-75
2023/03/06 07:27:15;;;;;;;17.40;10.48;;;;;;;4.58;44.57;100211.94;5031592;28;20049;-75
2023/03/06 07:29:43;;;;;;;17.05;10.05;;;;;;;4.58;44.56;100220.06;5048378;28;20053;-75
2023/03/06 07:32:12;;;;;;;18.60;9.98;;;;;;;4.58;44.54;100211.94;5053589;28;20466;-76
2023/03/06 07:34:40;;;;;;;16.15;9.82;;;;;;;4.57;44.79;100212.91;5053244;28;20051;-75
2023/03/06 07:37:08;;;;;;;16.25;9.65;;;;;;;4.59;44.51;100212.81;5035369;28;20045;-75
2023/03/06 07:39:35;;;;;;;18.05;10.10;;;;;;;4.58;44.56;100205.63;5052028;28;20033;-75
2023/03/06 07:42:06;;;;;;;18.75;10.25;;;;;;;4.59;44.48;100213.66;5047753;28;20057;-75
2023/03/06 07:44:36;;;;;;;17.52;9.75;;;;;;;4.58;44.42;100208.34;5053034;28;20033;-75
2023/03/06 07:47:04;;;;;;;18.98;10.38;;;;;;;4.57;44.45;100212.03;5036062;28;20083;-75
2023/03/06 07:49:32;;;;;;;18.27;10.57;;;;;;;4.57;44.51;100220.16;5056991;28;20037;-76
2023/03/06 07:52:01;;;;;;;17.95;10.02;;;;;;;4.57;44.58;100206.63;5053492;28;20064;-76
2023/03/06 07:54:31;;;;;;;17.33;9.60;;;;;;;4.56;44.54;100219.31;5049034;28;20049;-75
2023/03/06 07:56:59;;;;;;;16.75;9.52;;;;;;;4.57;44.61;100214.75;5055070;28;20037;-75
2023/03/06 07:59:28;;;;;;;16.38;9.82;;;;;;;4.57;44.66;100210.19;5052004;28;20041;-75
2023/03/06 08:01:56;;;;;;;21.08;10.45;;;;;;;4.57;44.58;100214.75;5041651;28;20049;-75
2023/03/06 08:04:24;;;;;;;19.05;10.13;;;;;;;4.57;44.44;100210.19;5050805;28;20539;-75
2023/03/06 08:06:52;;;;;;;18.77;11.00;;;;;;;4.58;44.51;100211.94;5052601;28;20041;-76
2023/03/06 08:09:20;;;;;;;18.92;10.00;;;;;;;4.58;44.64;100217.34;5042699;28;20048;-75
2023/03/06 08:11:47;;;;;;;18.42;10.50;;;;;;;4.58;44.46;100211.06;5057540;28;20044;-75
2023/03/06 08:14:15;;;;;;;20.05;10.45;;;;;;;4.57;44.45;100212.91;5051674;28;20052;-76
2023/03/06 08:16:44;;;;;;;20.42;9.65;;;;;;;4.59;44.53;100208.25;5052602;28;20481;-75
2023/03/06 08:19:12;;;;;;;20.10;10.25;;;;;;;4.58;44.60;100211.94;5051514;28;20041;-75
2023/03/06 08:21:40;;;;;;;19.70;11.10;;;;;;;4.59;44.53;100205.53;5030611;28;20062;-75
2023/03/06 08:24:08;;;;;;;21.65;12.05;;;;;;;4.60;44.54;100209.97;5055778;28;20105;-75
2023/03/06 08:26:35;;;;;;;23.45;11.75;;;;;;;4.61;44.48;100211.72;5035425;28;20084;-75
2023/03/06 08:29:03;;;;;;;24.30;13.45;;;;;;;4.61;44.63;100210.84;5054961;28;20037;-76
2023/03/06 08:31:33;;;;;;;25.95;13.27;;;;;;;4.62;44.46;100201.75;5034670;28;20102;-75
2023/03/06 08:34:05;;;;;;;25.60;13.35;;;;;;;4.63;44.75;100200.78;5033676;28;20540;-75
2023/03/06 08:36:33;;;;;;;23.83;13.07;;;;;;;4.62;44.67;100199.91;5042918;28;20041;-75
2023/03/06 08:39:01;;;;;;;27.05;14.88;;;;;;;4.64;44.70;100197.06;5050658;28;20095;-75
2023/03/06 08:41:29;;;;;;;27.05;13.75;;;;;;;4.65;44.90;100201.50;5035650;28;20045;-75
2023/03/06 08:43:57;;;;;;;25.92;13.60;;;;;;;4.66;44.92;100198.69;5051884;28;20044;-75
2023/03/06 08:46:27;;;;;;;28.35;15.00;;;;;;;4.68;44.90;100196.72;5043658;28;20091;-76
2023/03/06 08:48:55;;;;;;;25.70;13.93;;;;;;;4.70;44.74;100197.50;5051360;28;20092;-76
2023/03/06 08:51:24;;;;;;;26.95;13.57;;;;;;;4.73;44.78;100199.09;5042096;28;20049;-75
2023/03/06 08:53:52;;;;;;;28.55;14.07;;;;;;;4.73;44.70;100202.66;5057519;28;20052;-76
2023/03/06 08:56:22;;;;;;;28.00;15.18;;;;;;;4.75;44.63;100195.31;5041582;28;20056;-75
2023/03/06 08:58:51;;;;;;;22.88;13.95;;;;;;;4.75;44.80;100200.72;5050971;28;20041;-75
2023/03/06 09:01:21;;;;;;;25.95;13.13;;;;;;;4.77;44.56;100187.06;5051648;28;20045;-75
2023/03/06 09:03:49;;;;;;;23.05;13.02;;;;;;;4.78;44.62;100194.22;5054641;28;20073;-75
2023/03/06 09:06:17;;;;;;;22.95;12.88;;;;;;;4.78;44.70;100197.78;5051736;28;20416;-75
2023/03/06 09:08:46;;;;;;;23.35;12.93;;;;;;;4.80;44.63;100187.69;5049818;28;20071;-75
2023/03/06 09:11:15;;;;;;;24.75;13.30;;;;;;;4.81;44.68;100193.97;5053960;28;20388;-76
2023/03/06 09:13:43;;;;;;;23.77;13.23;;;;;;;4.81;44.54;100192.13;5052032;28;20103;-75
2023/03/06 09:16:12;;;;;;;23.95;13.10;;;;;;;4.83;44.89;100197.44;5037785;28;20084;-75
2023/03/06 09:18:40;;;;;;;24.85;13.73;;;;;;;4.84;44.74;100196.47;5043328;28;20048;-75
2023/03/06 09:21:09;;;;;;;23.92;13.95;;;;;;;4.86;44.68;100197.22;5052240;28;20083;-75
2023/03/06 09:23:38;;;;;;;25.92;14.13;;;;;;;4.85;44.64;100200.91;5050861;28;20052;-75
2023/03/06 09:26:08;;;;;;;24.75;13.95;;;;;;;4.87;44.60;100199.81;5042708;28;20527;-75
2023/03/06 09:28:37;;;;;;;27.65;14.52;;;;;;;4.87;44.62;100204.38;5051760;28;20075;-75
2023/03/06 09:31:08;;;;;;;24.38;14.52;;;;;;;4.88;44.70;100208.81;5036895;28;20048;-75
2023/03/06 09:33:36;;;;;;;24.38;13.07;;;;;;;4.88;44.32;100208.81;5051381;28;20034;-76
2023/03/06 09:36:07;;;;;;;22.52;12.23;;;;;;;4.89;44.37;100203.25;5060912;28;20049;-75
2023/03/06 09:38:35;;;;;;;22.05;12.20;;;;;;;4.88;44.29;100211.53;5056477;28;20243;-75
2023/03/06 09:41:08;;;;;;;23.67;12.80;;;;;;;4.87;44.61;100202.53;5032550;28;20358;-75
2023/03/06 09:43:39;;;;;;;23.35;12.93;;;;;;;4.87;44.32;100204.38;5033328;28;20143;-75
2023/03/06 09:46:16;;;;;;;23.65;12.65;;;;;;;4.88;44.47;100203.41;5050121;28;20447;-75
2023/03/06 09:48:54;;;;;;;23.02;12.30;;;;;;;4.88;44.66;100198.81;5042723;28;20083;-75
2023/03/06 09:51:31;;;;;;;21.70;12.63;;;;;;;4.89;44.69;100210.53;5052364;28;20056;-75
2023/03/06 09:54:05;;;;;;;26.15;13.73;;;;;;;4.88;44.69;100204.25;5027025;28;20128;-75
2023/03/06 09:56:35;;;;;;;23.52;14.13;;;;;;;4.89;44.66;100207.81;5049906;28;20152;-75
2023/03/06 09:59:10;;;;;;;24.98;14.60;;;;;;;4.88;44.95;100197.97;5031931;28;20045;-75
2023/03/06 10:01:42;;;;;;;22.83;12.10;;;;;;;4.89;44.87;100203.25;5042748;28;20515;-75
2023/03/06 10:04:28;;;;;;;23.52;13.30;;;;;;;4.89;45.02;100195.13;5057813;28;20079;-75
2023/03/06 10:07:01;;;;;;;24.75;13.43;;;;;;;4.88;45.15;100203.41;5045039;28;20102;-75
2023/03/06 10:09:40;;;;;;;21.55;12.98;;;;;;;4.89;45.26;100202.41;5049500;28;20124;-76
2023/03/06 10:12:20;;;;;;;24.58;13.25;;;;;;;4.88;45.51;100201.53;5028422;28;20045;-75
2023/03/06 10:15:01;;;;;;;21.27;12.23;;;;;;;4.87;45.41;100199.81;5049546;28;20049;-76
2023/03/06 10:17:35;;;;;;;21.25;12.07;;;;;;;4.88;44.99;100198.81;5049953;28;20039;-75
2023/03/06 10:20:16;;;;;;;20.58;11.68;;;;;;;4.89;45.29;100194.25;5031463;28;20562;-75
2023/03/06 10:22:52;;;;;;;21.10;10.85;;;;;;;4.90;45.13;100201.41;5042801;28;20338;-75
2023/03/06 10:25:33;;;;;;;20.42;11.82;;;;;;;4.88;45.06;100200.69;5036536;28;20044;-75
2023/03/06 10:28:05;;;;;;;19.85;10.77;;;;;;;4.91;45.08;100195.03;5032403;28;20044;-76
2023/03/06 10:30:40;;;;;;;20.42;11.50;;;;;;;4.90;45.20;100196.88;5048795;28;21237;-76
2023/03/06 10:33:18;;;;;;;19.08;10.65;;;;;;;4.92;45.15;100194.03;5036910;28;20583;-75
2023/03/06 10:35:48;;;;;;;19.88;10.68;;;;;;;4.95;44.96;100203.81;5041066;28;20061;-76
2023/03/06 10:38:20;;;;;;;20.20;11.10;;;;;;;4.96;45.34;100194.69;5032106;28;20056;-75
2023/03/06 10:41:05;;;;;;;20.50;10.95;;;;;;;4.97;45.20;100197.25;5038647;28;20420;-75
2023/03/06 10:43:34;;;;;;;17.05;10.35;;;;;;;4.97;44.98;100197.25;5056908;28;20041;-75
2023/03/06 10:46:06;;;;;;;20.73;11.98;;;;;;;5.00;45.07;100197.06;5060826;28;20046;-75
2023/03/06 10:48:36;;;;;;;19.00;10.52;;;;;;;5.00;44.92;100204.31;5039391;28;20079;-76
2023/03/06 10:51:17;;;;;;;16.48;9.57;;;;;;;5.03;45.36;100207.69;5049533;28;20060;-76
2023/03/06 10:53:51;;;;;;;17.35;9.70;;;;;;;5.02;45.49;100195.09;5041898;28;20128;-75
2023/03/06 10:56:27;;;;;;;15.68;9.50;;;;;;;5.03;45.09;100204.97;5049745;28;20504;-75
2023/03/06 10:59:08;;;;;;;17.27;9.57;;;;;;;5.01;45.25;100204.22;5048738;28;20041;-75
2023/03/06 11:01:37;;;;;;;15.30;9.30;;;;;;;4.98;45.07;100209.84;5039518;28;20048;-75
2023/03/06 11:04:16;;;;;;;15.93;9.02;;;;;;;5.00;45.33;100217.88;5030956;28;20037;-75
2023/03/06 11:06:44;;;;;;;15.63;9.10;;;;;;;4.97;44.97;100209.97;5042763;28;20056;-75
2023/03/06 11:09:20;;;;;;;18.45;9.93;;;;;;;4.99;45.14;100217.00;5047682;28;20087;-75
2023/03/06 11:11:48;;;;;;;16.60;9.43;;;;;;;4.95;45.08;100215.53;5036544;28;20132;-76
2023/03/06 11:14:18;;;;;;;16.70;9.88;;;;;;;4.96;45.31;100211.84;5030668;28;20057;-75
2023/03/06 11:16:52;;;;;;;16.95;9.85;;;;;;;4.97;45.06;100212.66;5045832;28;20056;-75
2023/03/06 11:19:25;;;;;;;16.33;9.82;;;;;;;4.96;45.37;100214.53;5052831;28;20040;-76
2023/03/06 11:22:01;;;;;;;15.95;9.35;;;;;;;4.98;45.42;100214.41;5036950;28;20059;-76
2023/03/06 11:24:36;;;;;;;18.52;10.15;;;;;;;4.98;45.50;100209.84;5049218;28;20128;-75
2023/03/06 11:27:17;;;;;;;17.50;10.80;;;;;;;4.99;45.66;100216.13;5031525;28;20053;-75
2023/03/06 11:29:49;;;;;;;17.73;9.40;;;;;;;4.99;45.35;100208.00;5041474;28;20059;-76
2023/03/06 11:32:22;;;;;;;15.68;9.43;;;;;;;4.99;45.32;100202.59;5049003;28;20109;-75
2023/03/06 11:34:55;;;;;;;16.15;9.50;;;;;;;4.98;45.15;100217.97;5042380;28;20405;-75